sensor_id;sensor_type;location;lat;lon;timestamp;P1;durP1;ratioP1;P2;durP2;ratioP2
18818;SDS011;9537;45.594;9.294;2023-02-13T00:00:25;49.27;;;30.30;;
18818;SDS011;9537;45.594;9.294;2023-02-13T00:01:26;52.83;;;31.00;;
18818;SDS011;9537;45.594;9.294;2023-02-13T00:02:30;47.70;;;30.20;;
18818;SDS011;9537;45.594;9.294;2023-02-13T00:03:31;50.93;;;28.33;;
18818;SDS011;9537;45.594;9.294;2023-02-13T00:04:34;50.10;;;28.37;;
18818;SDS011;9537;45.594;9.294;2023-02-13T00:05:35;50.47;;;30.70;;
18818;SDS011;9537;45.594;9.294;2023-02-13T00:06:37;50.13;;;29.47;;
18818;SDS011;9537;45.594;9.294;2023-02-13T00:07:38;50.07;;;27.77;;
18818;SDS011;9537;45.594;9.294;2023-02-13T00:08:39;50.87;;;29.03;;
18818;SDS011;9537;45.594;9.294;2023-02-13T00:09:40;56.87;;;31.27;;
18818;SDS011;9537;45.594;9.294;2023-02-13T00:10:43;51.97;;;32.53;;
18818;SDS011;9537;45.594;9.294;2023-02-13T00:11:44;56.33;;;33.27;;
18818;SDS011;9537;45.594;9.294;2023-02-13T00:12:46;50.87;;;31.63;;
18818;SDS011;9537;45.594;9.294;2023-02-13T00:13:47;57.73;;;33.23;;
18818;SDS011;9537;45.594;9.294;2023-02-13T00:14:49;55.17;;;33.73;;
18818;SDS011;9537;45.594;9.294;2023-02-13T00:15:56;54.37;;;32.80;;
18818;SDS011;9537;45.594;9.294;2023-02-13T00:16:59;62.47;;;33.23;;
18818;SDS011;9537;45.594;9.294;2023-02-13T00:18:01;56.73;;;34.63;;
18818;SDS011;9537;45.594;9.294;2023-02-13T00:19:03;61.03;;;36.50;;
18818;SDS011;9537;45.594;9.294;2023-02-13T00:20:05;61.73;;;34.93;;
18818;SDS011;9537;45.594;9.294;2023-02-13T00:21:08;57.17;;;35.50;;
18818;SDS011;9537;45.594;9.294;2023-02-13T00:22:10;62.87;;;34.10;;
18818;SDS011;9537;45.594;9.294;2023-02-13T00:23:12;54.93;;;32.37;;
18818;SDS011;9537;45.594;9.294;2023-02-13T00:24:13;56.90;;;34.03;;
18818;SDS011;9537;45.594;9.294;2023-02-13T00:25:15;55.80;;;31.30;;
18818;SDS011;9537;45.594;9.294;2023-02-13T00:26:16;60.70;;;34.10;;
18818;SDS011;9537;45.594;9.294;2023-02-13T00:27:18;51.10;;;32.03;;
18818;SDS011;9537;45.594;9.294;2023-02-13T00:28:20;55.23;;;32.10;;
18818;SDS011;9537;45.594;9.294;2023-02-13T00:29:22;55.47;;;31.50;;
18818;SDS011;9537;45.594;9.294;2023-02-13T00:30:23;56.50;;;32.17;;
18818;SDS011;9537;45.594;9.294;2023-02-13T00:31:25;57.50;;;31.83;;
18818;SDS011;9537;45.594;9.294;2023-02-13T00:32:26;53.67;;;32.90;;
18818;SDS011;9537;45.594;9.294;2023-02-13T00:33:29;52.97;;;32.07;;
18818;SDS011;9537;45.594;9.294;2023-02-13T00:34:30;50.23;;;30.77;;
18818;SDS011;9537;45.594;9.294;2023-02-13T00:35:32;49.80;;;32.40;;
18818;SDS011;9537;45.594;9.294;2023-02-13T00:36:33;52.53;;;32.83;;
18818;SDS011;9537;45.594;9.294;2023-02-13T00:37:35;54.33;;;31.97;;
18818;SDS011;9537;45.594;9.294;2023-02-13T00:38:37;55.43;;;31.80;;
18818;SDS011;9537;45.594;9.294;2023-02-13T00:39:40;54.70;;;33.90;;
18818;SDS011;9537;45.594;9.294;2023-02-13T00:40:41;56.93;;;32.23;;
18818;SDS011;9537;45.594;9.294;2023-02-13T00:41:43;51.13;;;32.47;;
18818;SDS011;9537;45.594;9.294;2023-02-13T00:42:45;53.07;;;31.47;;
18818;SDS011;9537;45.594;9.294;2023-02-13T00:43:47;55.60;;;32.60;;
18818;SDS011;9537;45.594;9.294;2023-02-13T00:44:48;55.33;;;31.93;;
18818;SDS011;9537;45.594;9.294;2023-02-13T00:45:50;53.87;;;31.80;;
18818;SDS011;9537;45.594;9.294;2023-02-13T00:46:51;51.70;;;31.57;;
18818;SDS011;9537;45.594;9.294;2023-02-13T00:47:54;55.67;;;32.00;;
18818;SDS011;9537;45.594;9.294;2023-02-13T00:48:56;51.93;;;32.50;;
18818;SDS011;9537;45.594;9.294;2023-02-13T00:49:58;56.03;;;31.50;;
18818;SDS011;9537;45.594;9.294;2023-02-13T00:50:59;52.80;;;31.33;;
18818;SDS011;9537;45.594;9.294;2023-02-13T00:52:01;54.70;;;31.23;;
18818;SDS011;9537;45.594;9.294;2023-02-13T00:53:02;51.83;;;31.50;;
18818;SDS011;9537;45.594;9.294;2023-02-13T00:54:04;55.37;;;31.17;;
18818;SDS011;9537;45.594;9.294;2023-02-13T00:55:05;51.53;;;31.03;;
18818;SDS011;9537;45.594;9.294;2023-02-13T00:56:07;48.03;;;29.33;;
18818;SDS011;9537;45.594;9.294;2023-02-13T00:57:08;50.47;;;29.70;;
18818;SDS011;9537;45.594;9.294;2023-02-13T00:58:10;44.00;;;27.83;;
18818;SDS011;9537;45.594;9.294;2023-02-13T00:59:11;53.10;;;29.73;;
18818;SDS011;9537;45.594;9.294;2023-02-13T01:00:14;51.10;;;30.17;;
18818;SDS011;9537;45.594;9.294;2023-02-13T01:01:16;49.67;;;29.57;;
18818;SDS011;9537;45.594;9.294;2023-02-13T01:02:18;50.10;;;30.30;;
18818;SDS011;9537;45.594;9.294;2023-02-13T01:03:19;53.90;;;29.77;;
18818;SDS011;9537;45.594;9.294;2023-02-13T01:04:24;49.37;;;29.53;;
18818;SDS011;9537;45.594;9.294;2023-02-13T01:05:25;51.30;;;30.33;;
18818;SDS011;9537;45.594;9.294;2023-02-13T01:06:28;49.00;;;29.60;;
18818;SDS011;9537;45.594;9.294;2023-02-13T01:07:29;50.63;;;29.73;;
18818;SDS011;9537;45.594;9.294;2023-02-13T01:08:30;50.00;;;31.00;;
18818;SDS011;9537;45.594;9.294;2023-02-13T01:09:32;47.93;;;29.37;;
18818;SDS011;9537;45.594;9.294;2023-02-13T01:10:35;50.73;;;29.77;;
18818;SDS011;9537;45.594;9.294;2023-02-13T01:11:37;52.73;;;30.47;;
18818;SDS011;9537;45.594;9.294;2023-02-13T01:12:39;54.90;;;30.23;;
18818;SDS011;9537;45.594;9.294;2023-02-13T01:13:40;49.87;;;28.80;;
18818;SDS011;9537;45.594;9.294;2023-02-13T01:14:42;54.27;;;30.10;;
18818;SDS011;9537;45.594;9.294;2023-02-13T01:15:43;48.60;;;28.83;;
18818;SDS011;9537;45.594;9.294;2023-02-13T01:16:46;55.90;;;31.37;;
18818;SDS011;9537;45.594;9.294;2023-02-13T01:17:46;54.80;;;31.40;;
18818;SDS011;9537;45.594;9.294;2023-02-13T01:18:49;49.00;;;29.90;;
18818;SDS011;9537;45.594;9.294;2023-02-13T01:19:51;48.70;;;29.43;;
18818;SDS011;9537;45.594;9.294;2023-02-13T01:20:56;52.07;;;29.30;;
18818;SDS011;9537;45.594;9.294;2023-02-13T01:21:59;50.13;;;30.53;;
18818;SDS011;9537;45.594;9.294;2023-02-13T01:23:01;51.77;;;30.87;;
18818;SDS011;9537;45.594;9.294;2023-02-13T01:24:03;50.97;;;30.97;;
18818;SDS011;9537;45.594;9.294;2023-02-13T01:25:05;49.87;;;29.60;;
18818;SDS011;9537;45.594;9.294;2023-02-13T01:26:07;50.60;;;28.63;;
18818;SDS011;9537;45.594;9.294;2023-02-13T01:27:14;49.53;;;29.40;;
18818;SDS011;9537;45.594;9.294;2023-02-13T01:28:15;50.13;;;32.63;;
18818;SDS011;9537;45.594;9.294;2023-02-13T01:29:17;52.87;;;31.30;;
18818;SDS011;9537;45.594;9.294;2023-02-13T01:30:18;54.73;;;29.80;;
18818;SDS011;9537;45.594;9.294;2023-02-13T01:31:21;52.63;;;29.23;;
18818;SDS011;9537;45.594;9.294;2023-02-13T01:32:22;52.23;;;29.67;;
18818;SDS011;9537;45.594;9.294;2023-02-13T01:33:25;48.27;;;28.90;;
18818;SDS011;9537;45.594;9.294;2023-02-13T01:34:26;51.83;;;29.80;;
18818;SDS011;9537;45.594;9.294;2023-02-13T01:35:30;47.27;;;28.77;;
18818;SDS011;9537;45.594;9.294;2023-02-13T01:36:31;53.43;;;29.83;;
18818;SDS011;9537;45.594;9.294;2023-02-13T01:37:32;49.77;;;30.07;;
18818;SDS011;9537;45.594;9.294;2023-02-13T01:38:33;50.23;;;29.77;;
18818;SDS011;9537;45.594;9.294;2023-02-13T01:39:35;50.80;;;30.60;;
18818;SDS011;9537;45.594;9.294;2023-02-13T01:40:42;54.33;;;31.63;;
18818;SDS011;9537;45.594;9.294;2023-02-13T01:41:45;48.30;;;28.20;;
18818;SDS011;9537;45.594;9.294;2023-02-13T01:42:46;49.33;;;29.13;;
18818;SDS011;9537;45.594;9.294;2023-02-13T01:43:49;50.40;;;28.73;;
18818;SDS011;9537;45.594;9.294;2023-02-13T01:44:52;47.60;;;28.33;;
18818;SDS011;9537;45.594;9.294;2023-02-13T01:45:55;51.07;;;28.70;;
18818;SDS011;9537;45.594;9.294;2023-02-13T01:46:58;50.00;;;28.63;;
18818;SDS011;9537;45.594;9.294;2023-02-13T01:48:01;49.17;;;28.70;;
18818;SDS011;9537;45.594;9.294;2023-02-13T01:49:05;48.27;;;29.87;;
18818;SDS011;9537;45.594;9.294;2023-02-13T01:50:19;49.23;;;27.77;;
18818;SDS011;9537;45.594;9.294;2023-02-13T01:51:26;51.80;;;33.27;;
18818;SDS011;9537;45.594;9.294;2023-02-13T01:52:32;55.10;;;29.10;;
18818;SDS011;9537;45.594;9.294;2023-02-13T01:53:36;50.90;;;28.63;;
18818;SDS011;9537;45.594;9.294;2023-02-13T01:54:42;46.17;;;28.03;;
18818;SDS011;9537;45.594;9.294;2023-02-13T01:55:46;50.07;;;29.07;;
18818;SDS011;9537;45.594;9.294;2023-02-13T01:56:50;48.63;;;28.80;;
18818;SDS011;9537;45.594;9.294;2023-02-13T01:57:56;49.00;;;28.23;;
18818;SDS011;9537;45.594;9.294;2023-02-13T01:59:04;49.67;;;29.13;;
18818;SDS011;9537;45.594;9.294;2023-02-13T02:00:10;51.10;;;29.00;;
18818;SDS011;9537;45.594;9.294;2023-02-13T02:01:14;49.43;;;28.30;;
18818;SDS011;9537;45.594;9.294;2023-02-13T02:02:15;47.60;;;30.70;;
18818;SDS011;9537;45.594;9.294;2023-02-13T02:03:20;50.67;;;28.67;;
18818;SDS011;9537;45.594;9.294;2023-02-13T02:04:28;46.07;;;27.57;;
18818;SDS011;9537;45.594;9.294;2023-02-13T02:05:33;47.33;;;27.37;;
18818;SDS011;9537;45.594;9.294;2023-02-13T02:06:37;46.93;;;26.70;;
18818;SDS011;9537;45.594;9.294;2023-02-13T02:07:42;44.60;;;26.70;;
18818;SDS011;9537;45.594;9.294;2023-02-13T02:08:45;48.93;;;27.73;;
18818;SDS011;9537;45.594;9.294;2023-02-13T02:09:50;47.03;;;27.70;;
18818;SDS011;9537;45.594;9.294;2023-02-13T02:10:53;50.80;;;27.77;;
18818;SDS011;9537;45.594;9.294;2023-02-13T02:11:58;47.30;;;28.73;;
18818;SDS011;9537;45.594;9.294;2023-02-13T02:13:04;52.37;;;29.77;;
18818;SDS011;9537;45.594;9.294;2023-02-13T02:14:08;52.83;;;29.57;;
18818;SDS011;9537;45.594;9.294;2023-02-13T02:15:09;54.83;;;32.43;;
18818;SDS011;9537;45.594;9.294;2023-02-13T02:16:12;47.87;;;28.67;;
18818;SDS011;9537;45.594;9.294;2023-02-13T02:17:13;47.27;;;28.50;;
18818;SDS011;9537;45.594;9.294;2023-02-13T02:18:16;52.63;;;29.33;;
18818;SDS011;9537;45.594;9.294;2023-02-13T02:19:21;49.50;;;27.93;;
18818;SDS011;9537;45.594;9.294;2023-02-13T02:25:59;46.07;;;27.10;;
18818;SDS011;9537;45.594;9.294;2023-02-13T02:29:11;54.23;;;34.80;;
18818;SDS011;9537;45.594;9.294;2023-02-13T02:32:21;55.73;;;34.63;;
18818;SDS011;9537;45.594;9.294;2023-02-13T02:33:38;56.03;;;37.47;;
18818;SDS011;9537;45.594;9.294;2023-02-13T02:34:52;54.97;;;36.43;;
18818;SDS011;9537;45.594;9.294;2023-02-13T02:36:02;57.83;;;39.17;;
18818;SDS011;9537;45.594;9.294;2023-02-13T02:37:17;57.23;;;39.70;;
18818;SDS011;9537;45.594;9.294;2023-02-13T02:38:34;56.80;;;38.80;;
18818;SDS011;9537;45.594;9.294;2023-02-13T02:39:52;54.10;;;38.27;;
18818;SDS011;9537;45.594;9.294;2023-02-13T02:41:08;51.47;;;36.07;;
18818;SDS011;9537;45.594;9.294;2023-02-13T02:42:38;49.67;;;30.93;;
18818;SDS011;9537;45.594;9.294;2023-02-13T02:43:50;53.87;;;35.60;;
18818;SDS011;9537;45.594;9.294;2023-02-13T02:45:02;49.63;;;28.57;;
18818;SDS011;9537;45.594;9.294;2023-02-13T02:46:10;52.40;;;28.30;;
18818;SDS011;9537;45.594;9.294;2023-02-13T02:47:20;46.07;;;26.40;;
18818;SDS011;9537;45.594;9.294;2023-02-13T02:48:47;46.87;;;26.60;;
18818;SDS011;9537;45.594;9.294;2023-02-13T02:50:21;53.67;;;37.43;;
18818;SDS011;9537;45.594;9.294;2023-02-13T02:51:29;51.20;;;28.47;;
18818;SDS011;9537;45.594;9.294;2023-02-13T02:52:41;55.00;;;37.43;;
18818;SDS011;9537;45.594;9.294;2023-02-13T02:53:50;48.47;;;27.77;;
18818;SDS011;9537;45.594;9.294;2023-02-13T02:55:00;48.67;;;28.13;;
18818;SDS011;9537;45.594;9.294;2023-02-13T02:56:07;48.30;;;28.60;;
18818;SDS011;9537;45.594;9.294;2023-02-13T02:57:18;46.80;;;27.97;;
18818;SDS011;9537;45.594;9.294;2023-02-13T02:58:23;44.03;;;26.50;;
18818;SDS011;9537;45.594;9.294;2023-02-13T02:59:48;48.63;;;27.40;;
18818;SDS011;9537;45.594;9.294;2023-02-13T03:01:13;46.90;;;28.40;;
18818;SDS011;9537;45.594;9.294;2023-02-13T03:02:37;53.53;;;36.20;;
18818;SDS011;9537;45.594;9.294;2023-02-13T03:03:57;53.27;;;34.00;;
18818;SDS011;9537;45.594;9.294;2023-02-13T03:05:19;50.83;;;35.83;;
18818;SDS011;9537;45.594;9.294;2023-02-13T03:06:45;48.63;;;28.27;;
18818;SDS011;9537;45.594;9.294;2023-02-13T03:07:50;47.53;;;26.40;;
18818;SDS011;9537;45.594;9.294;2023-02-13T03:08:51;45.97;;;26.97;;
18818;SDS011;9537;45.594;9.294;2023-02-13T03:10:25;52.03;;;26.47;;
18818;SDS011;9537;45.594;9.294;2023-02-13T03:11:49;53.33;;;36.30;;
18818;SDS011;9537;45.594;9.294;2023-02-13T03:13:12;50.43;;;32.50;;
18818;SDS011;9537;45.594;9.294;2023-02-13T03:14:24;44.70;;;25.13;;
18818;SDS011;9537;45.594;9.294;2023-02-13T03:15:27;51.77;;;35.67;;
18818;SDS011;9537;45.594;9.294;2023-02-13T03:16:30;47.27;;;26.33;;
18818;SDS011;9537;45.594;9.294;2023-02-13T03:17:51;41.43;;;25.50;;
18818;SDS011;9537;45.594;9.294;2023-02-13T03:19:12;46.47;;;25.60;;
18818;SDS011;9537;45.594;9.294;2023-02-13T03:20:35;45.80;;;28.33;;
18818;SDS011;9537;45.594;9.294;2023-02-13T03:22:04;48.07;;;34.00;;
18818;SDS011;9537;45.594;9.294;2023-02-13T03:23:22;49.50;;;34.77;;
18818;SDS011;9537;45.594;9.294;2023-02-13T03:24:37;51.17;;;36.73;;
18818;SDS011;9537;45.594;9.294;2023-02-13T03:26:06;49.30;;;26.73;;
18818;SDS011;9537;45.594;9.294;2023-02-13T03:27:33;48.23;;;31.37;;
18818;SDS011;9537;45.594;9.294;2023-02-13T03:29:02;53.40;;;36.57;;
18818;SDS011;9537;45.594;9.294;2023-02-13T03:30:34;43.17;;;23.90;;
18818;SDS011;9537;45.594;9.294;2023-02-13T03:31:47;47.67;;;26.00;;
18818;SDS011;9537;45.594;9.294;2023-02-13T03:33:05;40.43;;;24.07;;
18818;SDS011;9537;45.594;9.294;2023-02-13T03:34:18;45.17;;;26.87;;
18818;SDS011;9537;45.594;9.294;2023-02-13T03:35:26;40.80;;;23.83;;
18818;SDS011;9537;45.594;9.294;2023-02-13T03:36:54;46.40;;;25.07;;
18818;SDS011;9537;45.594;9.294;2023-02-13T03:38:21;43.23;;;24.03;;
18818;SDS011;9537;45.594;9.294;2023-02-13T03:39:29;49.70;;;33.17;;
18818;SDS011;9537;45.594;9.294;2023-02-13T03:40:40;45.47;;;26.60;;
18818;SDS011;9537;45.594;9.294;2023-02-13T03:42:03;45.17;;;24.10;;
18818;SDS011;9537;45.594;9.294;2023-02-13T03:43:09;44.03;;;24.33;;
18818;SDS011;9537;45.594;9.294;2023-02-13T03:44:15;44.03;;;25.53;;
18818;SDS011;9537;45.594;9.294;2023-02-13T03:45:22;43.87;;;26.50;;
18818;SDS011;9537;45.594;9.294;2023-02-13T03:46:47;50.97;;;30.77;;
18818;SDS011;9537;45.594;9.294;2023-02-13T03:47:52;44.47;;;26.13;;
18818;SDS011;9537;45.594;9.294;2023-02-13T03:48:57;45.10;;;25.33;;
18818;SDS011;9537;45.594;9.294;2023-02-13T03:50:19;48.37;;;27.80;;
18818;SDS011;9537;45.594;9.294;2023-02-13T03:51:23;43.30;;;24.50;;
18818;SDS011;9537;45.594;9.294;2023-02-13T03:52:30;46.77;;;25.63;;
18818;SDS011;9537;45.594;9.294;2023-02-13T03:53:33;45.40;;;24.43;;
18818;SDS011;9537;45.594;9.294;2023-02-13T03:54:40;43.13;;;25.03;;
18818;SDS011;9537;45.594;9.294;2023-02-13T03:56:02;51.43;;;32.53;;
18818;SDS011;9537;45.594;9.294;2023-02-13T03:57:24;54.47;;;34.00;;
18818;SDS011;9537;45.594;9.294;2023-02-13T03:58:46;47.67;;;32.67;;
18818;SDS011;9537;45.594;9.294;2023-02-13T04:00:10;47.57;;;27.87;;
18818;SDS011;9537;45.594;9.294;2023-02-13T04:01:16;46.20;;;25.83;;
18818;SDS011;9537;45.594;9.294;2023-02-13T04:02:21;46.17;;;26.37;;
18818;SDS011;9537;45.594;9.294;2023-02-13T04:03:27;44.90;;;25.97;;
18818;SDS011;9537;45.594;9.294;2023-02-13T04:04:39;49.07;;;26.60;;
18818;SDS011;9537;45.594;9.294;2023-02-13T04:05:49;44.53;;;25.33;;
18818;SDS011;9537;45.594;9.294;2023-02-13T04:06:54;46.67;;;28.10;;
18818;SDS011;9537;45.594;9.294;2023-02-13T04:08:01;42.10;;;25.23;;
18818;SDS011;9537;45.594;9.294;2023-02-13T04:09:02;43.43;;;25.03;;
18818;SDS011;9537;45.594;9.294;2023-02-13T04:10:05;49.17;;;26.07;;
18818;SDS011;9537;45.594;9.294;2023-02-13T04:11:12;44.20;;;25.03;;
18818;SDS011;9537;45.594;9.294;2023-02-13T04:12:18;49.07;;;26.80;;
18818;SDS011;9537;45.594;9.294;2023-02-13T04:13:25;43.67;;;24.83;;
18818;SDS011;9537;45.594;9.294;2023-02-13T04:14:33;48.67;;;26.70;;
18818;SDS011;9537;45.594;9.294;2023-02-13T04:15:40;50.73;;;28.17;;
18818;SDS011;9537;45.594;9.294;2023-02-13T04:16:46;49.97;;;27.77;;
18818;SDS011;9537;45.594;9.294;2023-02-13T04:17:52;54.83;;;31.20;;
18818;SDS011;9537;45.594;9.294;2023-02-13T04:18:59;52.63;;;31.17;;
18818;SDS011;9537;45.594;9.294;2023-02-13T04:20:03;62.27;;;32.40;;
18818;SDS011;9537;45.594;9.294;2023-02-13T04:21:06;57.00;;;32.90;;
18818;SDS011;9537;45.594;9.294;2023-02-13T04:22:07;54.40;;;31.57;;
18818;SDS011;9537;45.594;9.294;2023-02-13T04:23:14;54.53;;;30.87;;
18818;SDS011;9537;45.594;9.294;2023-02-13T04:24:15;57.77;;;32.53;;
18818;SDS011;9537;45.594;9.294;2023-02-13T04:25:17;62.53;;;34.10;;
18818;SDS011;9537;45.594;9.294;2023-02-13T04:26:20;64.00;;;33.10;;
18818;SDS011;9537;45.594;9.294;2023-02-13T04:27:24;54.20;;;30.57;;
18818;SDS011;9537;45.594;9.294;2023-02-13T04:28:27;62.47;;;33.23;;
18818;SDS011;9537;45.594;9.294;2023-02-13T04:29:29;65.60;;;36.63;;
18818;SDS011;9537;45.594;9.294;2023-02-13T04:30:31;66.67;;;34.93;;
18818;SDS011;9537;45.594;9.294;2023-02-13T04:31:33;73.80;;;39.23;;
18818;SDS011;9537;45.594;9.294;2023-02-13T04:32:34;76.47;;;39.27;;
18818;SDS011;9537;45.594;9.294;2023-02-13T04:33:36;99.27;;;43.77;;
18818;SDS011;9537;45.594;9.294;2023-02-13T04:34:37;82.70;;;43.50;;
18818;SDS011;9537;45.594;9.294;2023-02-13T04:35:41;97.13;;;49.50;;
18818;SDS011;9537;45.594;9.294;2023-02-13T04:36:42;104.03;;;49.93;;
18818;SDS011;9537;45.594;9.294;2023-02-13T04:37:44;101.47;;;48.87;;
18818;SDS011;9537;45.594;9.294;2023-02-13T04:38:46;107.20;;;49.73;;
18818;SDS011;9537;45.594;9.294;2023-02-13T04:39:47;94.97;;;44.73;;
18818;SDS011;9537;45.594;9.294;2023-02-13T04:40:49;82.07;;;43.67;;
18818;SDS011;9537;45.594;9.294;2023-02-13T04:41:50;77.97;;;40.10;;
18818;SDS011;9537;45.594;9.294;2023-02-13T04:42:52;68.57;;;36.30;;
18818;SDS011;9537;45.594;9.294;2023-02-13T04:43:53;66.07;;;35.27;;
18818;SDS011;9537;45.594;9.294;2023-02-13T04:44:55;64.23;;;35.23;;
18818;SDS011;9537;45.594;9.294;2023-02-13T04:45:56;67.30;;;33.80;;
18818;SDS011;9537;45.594;9.294;2023-02-13T04:46:58;65.50;;;33.83;;
18818;SDS011;9537;45.594;9.294;2023-02-13T04:47:59;62.87;;;33.83;;
18818;SDS011;9537;45.594;9.294;2023-02-13T04:49:01;59.03;;;32.77;;
18818;SDS011;9537;45.594;9.294;2023-02-13T04:50:02;60.60;;;31.00;;
18818;SDS011;9537;45.594;9.294;2023-02-13T04:51:07;58.97;;;31.63;;
18818;SDS011;9537;45.594;9.294;2023-02-13T04:52:08;55.37;;;31.43;;
18818;SDS011;9537;45.594;9.294;2023-02-13T04:53:10;57.80;;;31.53;;
18818;SDS011;9537;45.594;9.294;2023-02-13T04:54:11;51.63;;;29.03;;
18818;SDS011;9537;45.594;9.294;2023-02-13T04:55:13;53.63;;;27.97;;
18818;SDS011;9537;45.594;9.294;2023-02-13T04:56:14;50.93;;;26.90;;
18818;SDS011;9537;45.594;9.294;2023-02-13T04:57:16;46.37;;;27.07;;
18818;SDS011;9537;45.594;9.294;2023-02-13T04:58:17;49.10;;;27.23;;
18818;SDS011;9537;45.594;9.294;2023-02-13T04:59:19;53.73;;;28.33;;
18818;SDS011;9537;45.594;9.294;2023-02-13T05:00:20;43.93;;;26.13;;
18818;SDS011;9537;45.594;9.294;2023-02-13T05:01:24;48.23;;;27.03;;
18818;SDS011;9537;45.594;9.294;2023-02-13T05:02:25;47.90;;;26.03;;
18818;SDS011;9537;45.594;9.294;2023-02-13T05:03:27;49.30;;;27.30;;
18818;SDS011;9537;45.594;9.294;2023-02-13T05:04:28;45.33;;;25.27;;
18818;SDS011;9537;45.594;9.294;2023-02-13T05:05:30;49.27;;;26.20;;
18818;SDS011;9537;45.594;9.294;2023-02-13T05:06:32;53.70;;;26.80;;
18818;SDS011;9537;45.594;9.294;2023-02-13T05:07:34;49.27;;;26.70;;
18818;SDS011;9537;45.594;9.294;2023-02-13T05:08:35;46.57;;;25.40;;
18818;SDS011;9537;45.594;9.294;2023-02-13T05:09:37;45.93;;;25.63;;
18818;SDS011;9537;45.594;9.294;2023-02-13T05:10:38;49.03;;;26.27;;
18818;SDS011;9537;45.594;9.294;2023-02-13T05:11:40;45.80;;;25.33;;
18818;SDS011;9537;45.594;9.294;2023-02-13T05:12:41;43.93;;;25.97;;
18818;SDS011;9537;45.594;9.294;2023-02-13T05:13:43;45.20;;;24.90;;
18818;SDS011;9537;45.594;9.294;2023-02-13T05:14:44;47.57;;;25.60;;
18818;SDS011;9537;45.594;9.294;2023-02-13T05:15:46;42.93;;;26.03;;
18818;SDS011;9537;45.594;9.294;2023-02-13T05:16:47;43.13;;;25.87;;
18818;SDS011;9537;45.594;9.294;2023-02-13T05:17:49;48.37;;;25.57;;
18818;SDS011;9537;45.594;9.294;2023-02-13T05:18:50;42.83;;;25.73;;
18818;SDS011;9537;45.594;9.294;2023-02-13T05:19:54;47.93;;;26.07;;
18818;SDS011;9537;45.594;9.294;2023-02-13T05:20:56;44.07;;;26.67;;
18818;SDS011;9537;45.594;9.294;2023-02-13T05:22:16;48.10;;;33.23;;
18818;SDS011;9537;45.594;9.294;2023-02-13T05:23:36;46.83;;;31.23;;
18818;SDS011;9537;45.594;9.294;2023-02-13T05:24:37;40.90;;;24.27;;
18818;SDS011;9537;45.594;9.294;2023-02-13T05:25:39;48.03;;;24.47;;
18818;SDS011;9537;45.594;9.294;2023-02-13T05:26:41;42.73;;;24.47;;
18818;SDS011;9537;45.594;9.294;2023-02-13T05:27:43;45.23;;;24.83;;
18818;SDS011;9537;45.594;9.294;2023-02-13T05:28:44;44.93;;;23.40;;
18818;SDS011;9537;45.594;9.294;2023-02-13T05:30:04;49.37;;;32.13;;
18818;SDS011;9537;45.594;9.294;2023-02-13T05:31:06;42.43;;;25.53;;
18818;SDS011;9537;45.594;9.294;2023-02-13T05:32:07;47.43;;;25.27;;
18818;SDS011;9537;45.594;9.294;2023-02-13T05:33:10;43.77;;;24.03;;
18818;SDS011;9537;45.594;9.294;2023-02-13T05:34:10;46.30;;;24.60;;
18818;SDS011;9537;45.594;9.294;2023-02-13T05:35:13;41.63;;;24.67;;
18818;SDS011;9537;45.594;9.294;2023-02-13T05:36:14;44.67;;;26.43;;
18818;SDS011;9537;45.594;9.294;2023-02-13T05:37:18;46.83;;;26.03;;
18818;SDS011;9537;45.594;9.294;2023-02-13T05:38:20;41.60;;;24.70;;
18818;SDS011;9537;45.594;9.294;2023-02-13T05:39:21;47.43;;;24.70;;
18818;SDS011;9537;45.594;9.294;2023-02-13T05:40:23;51.63;;;25.87;;
18818;SDS011;9537;45.594;9.294;2023-02-13T05:41:24;42.63;;;23.87;;
18818;SDS011;9537;45.594;9.294;2023-02-13T05:42:26;42.77;;;25.77;;
18818;SDS011;9537;45.594;9.294;2023-02-13T05:43:28;45.80;;;26.53;;
18818;SDS011;9537;45.594;9.294;2023-02-13T05:44:29;45.20;;;24.67;;
18818;SDS011;9537;45.594;9.294;2023-02-13T05:45:31;48.53;;;25.30;;
18818;SDS011;9537;45.594;9.294;2023-02-13T05:46:33;44.77;;;26.33;;
18818;SDS011;9537;45.594;9.294;2023-02-13T05:47:35;44.60;;;25.97;;
18818;SDS011;9537;45.594;9.294;2023-02-13T05:48:36;43.00;;;24.93;;
18818;SDS011;9537;45.594;9.294;2023-02-13T05:49:38;46.13;;;25.53;;
18818;SDS011;9537;45.594;9.294;2023-02-13T05:50:41;42.60;;;24.60;;
18818;SDS011;9537;45.594;9.294;2023-02-13T05:51:42;44.03;;;25.33;;
18818;SDS011;9537;45.594;9.294;2023-02-13T05:52:47;45.47;;;24.77;;
18818;SDS011;9537;45.594;9.294;2023-02-13T05:53:48;43.23;;;24.43;;
18818;SDS011;9537;45.594;9.294;2023-02-13T05:54:50;40.40;;;24.27;;
18818;SDS011;9537;45.594;9.294;2023-02-13T05:55:52;44.77;;;25.40;;
18818;SDS011;9537;45.594;9.294;2023-02-13T05:56:53;43.60;;;24.57;;
18818;SDS011;9537;45.594;9.294;2023-02-13T05:57:55;43.03;;;24.73;;
18818;SDS011;9537;45.594;9.294;2023-02-13T05:58:57;45.77;;;25.47;;
18818;SDS011;9537;45.594;9.294;2023-02-13T05:59:59;48.50;;;24.50;;
18818;SDS011;9537;45.594;9.294;2023-02-13T06:01:00;40.50;;;24.20;;
18818;SDS011;9537;45.594;9.294;2023-02-13T06:02:02;44.93;;;25.83;;
18818;SDS011;9537;45.594;9.294;2023-02-13T06:03:04;47.00;;;25.73;;
18818;SDS011;9537;45.594;9.294;2023-02-13T06:04:05;43.10;;;25.97;;
18818;SDS011;9537;45.594;9.294;2023-02-13T06:05:07;46.67;;;26.50;;
18818;SDS011;9537;45.594;9.294;2023-02-13T06:06:08;44.50;;;24.33;;
18818;SDS011;9537;45.594;9.294;2023-02-13T06:07:10;48.33;;;25.77;;
18818;SDS011;9537;45.594;9.294;2023-02-13T06:08:12;47.07;;;25.07;;
18818;SDS011;9537;45.594;9.294;2023-02-13T06:09:15;46.83;;;25.93;;
18818;SDS011;9537;45.594;9.294;2023-02-13T06:10:15;44.17;;;25.53;;
18818;SDS011;9537;45.594;9.294;2023-02-13T06:11:18;45.37;;;24.87;;
18818;SDS011;9537;45.594;9.294;2023-02-13T06:12:19;43.53;;;24.67;;
18818;SDS011;9537;45.594;9.294;2023-02-13T06:13:21;44.77;;;22.70;;
18818;SDS011;9537;45.594;9.294;2023-02-13T06:14:22;45.13;;;24.57;;
18818;SDS011;9537;45.594;9.294;2023-02-13T06:15:24;42.63;;;24.53;;
18818;SDS011;9537;45.594;9.294;2023-02-13T06:16:26;42.87;;;25.03;;
18818;SDS011;9537;45.594;9.294;2023-02-13T06:17:30;43.17;;;24.90;;
18818;SDS011;9537;45.594;9.294;2023-02-13T06:18:31;45.10;;;25.33;;
18818;SDS011;9537;45.594;9.294;2023-02-13T06:19:33;45.40;;;25.57;;
18818;SDS011;9537;45.594;9.294;2023-02-13T06:20:34;46.43;;;25.87;;
18818;SDS011;9537;45.594;9.294;2023-02-13T06:21:36;40.27;;;25.37;;
18818;SDS011;9537;45.594;9.294;2023-02-13T06:22:38;45.63;;;25.50;;
18818;SDS011;9537;45.594;9.294;2023-02-13T06:23:41;46.07;;;24.87;;
18818;SDS011;9537;45.594;9.294;2023-02-13T06:24:43;43.77;;;25.03;;
18818;SDS011;9537;45.594;9.294;2023-02-13T06:25:44;42.37;;;23.77;;
18818;SDS011;9537;45.594;9.294;2023-02-13T06:26:46;44.13;;;24.23;;
18818;SDS011;9537;45.594;9.294;2023-02-13T06:27:48;42.17;;;23.67;;
18818;SDS011;9537;45.594;9.294;2023-02-13T06:28:49;42.33;;;24.13;;
18818;SDS011;9537;45.594;9.294;2023-02-13T06:29:51;47.70;;;25.30;;
18818;SDS011;9537;45.594;9.294;2023-02-13T06:30:52;45.30;;;24.33;;
18818;SDS011;9537;45.594;9.294;2023-02-13T06:31:54;43.80;;;24.83;;
18818;SDS011;9537;45.594;9.294;2023-02-13T06:32:56;40.37;;;24.27;;
18818;SDS011;9537;45.594;9.294;2023-02-13T06:33:59;43.37;;;25.17;;
18818;SDS011;9537;45.594;9.294;2023-02-13T06:35:02;38.60;;;23.17;;
18818;SDS011;9537;45.594;9.294;2023-02-13T06:36:04;41.40;;;22.87;;
18818;SDS011;9537;45.594;9.294;2023-02-13T06:37:06;49.20;;;25.20;;